createdAt,value
2018-12-22T00:00:42.408Z,11.20
2018-12-22T00:03:09.668Z,11.20
2018-12-22T00:05:36.895Z,7.83
2018-12-22T00:08:04.120Z,8.23
2018-12-22T00:10:31.384Z,8.97
2018-12-22T00:12:58.599Z,7.30
2018-12-22T00:15:25.816Z,9.50
2018-12-22T00:17:53.072Z,10.10
2018-12-22T00:20:20.369Z,7.37
2018-12-22T00:22:47.587Z,8.17
2018-12-22T00:25:15.909Z,6.50
2018-12-22T00:27:43.126Z,6.50
2018-12-22T00:30:10.357Z,6.33
2018-12-22T00:32:37.608Z,6.83
2018-12-22T00:35:06.700Z,6.30
2018-12-22T00:37:33.925Z,7.00
2018-12-22T00:40:01.171Z,9.77
2018-12-22T00:42:28.405Z,9.73
2018-12-22T00:44:55.621Z,6.80
2018-12-22T00:47:22.857Z,9.27
2018-12-22T00:49:50.088Z,7.57
2018-12-22T00:52:17.336Z,5.40
2018-12-22T00:54:44.592Z,6.40
2018-12-22T00:57:11.823Z,5.77
2018-12-22T00:59:39.240Z,6.17
2018-12-22T01:02:06.494Z,6.67
2018-12-22T01:04:33.744Z,5.30
2018-12-22T01:07:01.034Z,5.62
2018-12-22T01:09:29.340Z,5.53
2018-12-22T01:11:56.589Z,7.30
2018-12-22T01:14:23.825Z,6.70
2018-12-22T01:16:51.072Z,7.20
2018-12-22T01:19:18.320Z,7.57
2018-12-22T01:21:45.555Z,7.63
2018-12-22T01:24:12.938Z,6.27
2018-12-22T01:26:40.317Z,8.80
2018-12-22T01:29:08.300Z,8.00
2018-12-22T01:31:35.722Z,9.20
2018-12-22T01:34:02.972Z,8.73
2018-12-22T01:36:32.344Z,7.40
2018-12-22T01:38:59.813Z,7.47
2018-12-22T01:41:27.084Z,9.27
2018-12-22T01:43:54.348Z,8.70
2018-12-22T01:46:21.572Z,8.13
2018-12-22T01:48:48.828Z,8.50
2018-12-22T01:51:16.068Z,5.40
2018-12-22T01:53:44.471Z,6.00
2018-12-22T01:56:11.724Z,5.43
2018-12-22T01:58:38.980Z,4.77
2018-12-22T02:01:07.228Z,4.83
2018-12-22T02:03:34.476Z,4.30
2018-12-22T02:06:01.704Z,5.50
2018-12-22T02:08:28.989Z,4.80
2018-12-22T02:10:57.334Z,5.77
2018-12-22T02:13:24.547Z,5.43
2018-12-22T02:15:51.911Z,5.47
2018-12-22T02:18:20.264Z,4.33
2018-12-22T02:20:48.812Z,6.77
2018-12-22T02:23:16.064Z,4.70
2018-12-22T02:25:43.280Z,4.60
2018-12-22T02:28:10.592Z,4.12
2018-12-22T02:30:37.845Z,4.33
2018-12-22T02:33:05.088Z,5.07
2018-12-22T02:35:32.447Z,4.87
2018-12-22T02:37:59.671Z,6.70
2018-12-22T02:40:27.100Z,5.13
2018-12-22T02:42:54.342Z,6.70
2018-12-22T02:45:22.675Z,6.87
2018-12-22T02:47:50.063Z,7.07
2018-12-22T02:50:17.297Z,6.70
2018-12-22T02:52:44.676Z,6.60
2018-12-22T02:55:11.904Z,6.07
2018-12-22T02:57:39.139Z,8.67
2018-12-22T03:00:08.926Z,11.40
2018-12-22T03:02:36.292Z,8.07
2018-12-22T03:05:04.044Z,9.70
2018-12-22T03:07:31.395Z,6.20
2018-12-22T03:09:58.629Z,8.03
2018-12-22T03:12:25.918Z,8.17
2018-12-22T03:14:53.156Z,9.13
2018-12-22T03:17:20.380Z,8.40
2018-12-22T03:19:47.639Z,7.10
2018-12-22T03:22:14.910Z,6.30
2018-12-22T03:24:42.216Z,6.70
2018-12-22T03:27:09.444Z,7.13
2018-12-22T03:29:36.664Z,7.17
2018-12-22T03:32:03.923Z,7.53
2018-12-22T03:34:31.248Z,7.60
2018-12-22T03:36:58.468Z,9.50
2018-12-22T03:39:25.728Z,10.40
2018-12-22T03:41:52.962Z,8.47
2018-12-22T03:44:20.191Z,6.80
2018-12-22T03:46:47.728Z,6.37
2018-12-22T03:49:14.945Z,8.77
2018-12-22T03:51:42.201Z,7.20
2018-12-22T03:54:11.413Z,7.37
2018-12-22T03:56:38.657Z,7.97
2018-12-22T03:59:05.957Z,10.13
2018-12-22T04:01:33.188Z,6.10
2018-12-22T04:04:00.459Z,7.27
2018-12-22T04:06:27.691Z,8.37
2018-12-22T04:08:54.940Z,9.10
2018-12-22T04:11:22.217Z,7.53
2018-12-22T04:13:49.437Z,7.53
2018-12-22T04:16:16.661Z,8.03
2018-12-22T04:18:44.926Z,8.17
2018-12-22T04:21:13.172Z,9.40
2018-12-22T04:23:40.404Z,7.70
2018-12-22T04:26:07.776Z,8.80
2018-12-22T04:28:35.030Z,8.70
2018-12-22T04:31:02.267Z,8.90
2018-12-22T04:33:29.872Z,8.90
2018-12-22T04:35:57.090Z,9.40
2018-12-22T04:38:24.304Z,8.53
2018-12-22T04:40:51.549Z,8.40
2018-12-22T04:43:18.800Z,8.17
2018-12-22T04:45:46.029Z,9.30
2018-12-22T04:48:13.276Z,10.60
2018-12-22T04:50:40.626Z,8.97
2018-12-22T04:53:07.872Z,10.30
2018-12-22T04:55:35.096Z,7.77
2018-12-22T04:58:02.341Z,9.10
2018-12-22T05:00:29.625Z,8.27
2018-12-22T05:02:56.872Z,9.60
2018-12-22T05:05:24.104Z,8.60
2018-12-22T05:07:51.336Z,7.87
2018-12-22T05:10:18.683Z,9.90
2018-12-22T05:12:46.000Z,10.03
2018-12-22T05:15:13.232Z,8.43
2018-12-22T05:17:40.464Z,8.07
2018-12-22T05:20:07.825Z,9.70
2018-12-22T05:22:35.087Z,8.40
2018-12-22T05:25:02.332Z,8.27
2018-12-22T05:27:29.584Z,6.40
2018-12-22T05:29:56.836Z,6.33
2018-12-22T05:32:24.076Z,6.27
2018-12-22T05:34:51.300Z,10.43
2018-12-22T05:37:18.532Z,7.10
2018-12-22T05:39:45.753Z,7.67
2018-12-22T05:42:13.006Z,8.10
2018-12-22T05:44:40.252Z,5.83
2018-12-22T05:47:08.517Z,6.03
2018-12-22T05:49:35.776Z,7.67
2018-12-22T05:52:04.100Z,5.83
2018-12-22T05:54:31.361Z,6.93
2018-12-22T05:56:59.601Z,7.03
2018-12-22T05:59:26.869Z,12.23
2018-12-22T06:01:54.165Z,11.70
2018-12-22T06:04:21.404Z,10.70
2018-12-22T06:07:05.604Z,11.03
2018-12-22T06:09:34.923Z,9.90
2018-12-22T06:12:04.320Z,10.20
2018-12-22T06:14:31.752Z,11.23
2018-12-22T06:16:58.985Z,12.90
2018-12-22T06:19:26.213Z,10.30
2018-12-22T06:21:53.528Z,12.13
2018-12-22T06:24:21.285Z,13.40
2018-12-22T06:26:48.536Z,8.23
2018-12-22T06:29:15.765Z,10.50
2018-12-22T06:31:43.016Z,10.90
2018-12-22T06:34:11.312Z,10.63
2018-12-22T06:36:39.604Z,14.03
2018-12-22T06:39:06.829Z,10.23
2018-12-22T06:41:34.420Z,11.07
2018-12-22T06:44:01.639Z,7.83
2018-12-22T06:46:28.856Z,13.37
2018-12-22T06:48:56.100Z,11.80
2018-12-22T06:51:23.340Z,9.00
2018-12-22T06:53:50.590Z,9.40
2018-12-22T06:56:18.021Z,9.53
2018-12-22T06:58:45.255Z,8.17
2018-12-22T07:01:12.636Z,6.47
2018-12-22T07:03:40.892Z,9.27
2018-12-22T07:06:08.117Z,8.27
2018-12-22T07:08:35.416Z,10.73
2018-12-22T07:11:02.653Z,10.10
2018-12-22T07:13:29.904Z,9.47
2018-12-22T07:15:57.125Z,10.23
2018-12-22T07:18:24.368Z,7.53
2018-12-22T07:20:51.608Z,7.93
2018-12-22T07:23:18.872Z,6.60
2018-12-22T07:25:46.109Z,7.23
2018-12-22T07:28:13.341Z,6.83
2018-12-22T07:30:40.672Z,6.07
2018-12-22T07:33:08.024Z,7.27
2018-12-22T07:35:35.247Z,7.07
2018-12-22T07:38:02.514Z,5.83
2018-12-22T07:40:29.760Z,8.83
2018-12-22T07:42:56.996Z,8.13
2018-12-22T07:45:24.232Z,6.30
2018-12-22T07:47:51.460Z,4.73
2018-12-22T07:50:18.704Z,5.23
2018-12-22T07:52:51.583Z,5.47
2018-12-22T07:55:15.200Z,11.37
2018-12-22T07:57:42.467Z,5.60
2018-12-22T08:00:09.700Z,6.53
2018-12-22T08:02:37.047Z,7.47
2018-12-22T08:05:04.789Z,7.27
2018-12-22T08:07:32.032Z,5.73
2018-12-22T08:09:59.260Z,7.63
2018-12-22T08:12:26.500Z,4.13
2018-12-22T08:14:53.721Z,4.43
2018-12-22T08:17:20.965Z,3.97
2018-12-22T08:19:49.428Z,5.33
2018-12-22T08:22:16.953Z,4.50
2018-12-22T08:24:44.183Z,5.20
2018-12-22T08:27:12.494Z,5.20
2018-12-22T08:29:39.737Z,4.13
2018-12-22T08:32:07.009Z,7.93
2018-12-22T08:34:34.249Z,6.07
2018-12-22T08:37:01.472Z,5.40
2018-12-22T08:39:28.703Z,7.03
2018-12-22T08:41:56.068Z,6.63
2018-12-22T08:44:23.285Z,6.30
2018-12-22T08:46:50.619Z,8.27
2018-12-22T08:49:17.877Z,7.90
2018-12-22T08:51:45.116Z,5.30
2018-12-22T08:54:12.481Z,6.30
2018-12-22T08:56:39.716Z,5.30
2018-12-22T08:59:06.964Z,5.43
2018-12-22T09:01:35.882Z,7.53
2018-12-22T09:04:03.260Z,5.80
2018-12-22T09:06:34.398Z,11.30
2018-12-22T09:09:01.821Z,5.97
2018-12-22T09:11:29.896Z,5.37
2018-12-22T09:13:58.159Z,6.10
2018-12-22T09:16:25.464Z,5.50
2018-12-22T09:18:52.736Z,6.07
2018-12-22T09:21:20.084Z,7.47
2018-12-22T09:23:47.428Z,6.73
2018-12-22T09:26:14.771Z,9.90
2018-12-22T09:28:42.077Z,8.70
2018-12-22T09:31:09.313Z,8.93
2018-12-22T09:33:36.537Z,8.90
2018-12-22T09:36:03.836Z,8.67
2018-12-22T09:38:31.068Z,8.20
2018-12-22T09:40:58.431Z,7.10
2018-12-22T09:43:25.789Z,9.53
2018-12-22T09:45:53.037Z,7.60
2018-12-22T09:48:20.296Z,7.13
2018-12-22T09:50:48.590Z,6.50
2018-12-22T09:53:15.821Z,5.17
2018-12-22T09:55:43.064Z,6.23
2018-12-22T09:58:10.323Z,5.20
2018-12-22T10:00:37.581Z,5.43
2018-12-22T10:03:04.828Z,4.50
2018-12-22T10:05:34.097Z,5.87
2018-12-22T10:08:01.324Z,5.10
2018-12-22T10:10:28.556Z,5.30
2018-12-22T10:12:55.781Z,5.07
2018-12-22T10:15:23.016Z,4.80
2018-12-22T10:17:50.267Z,5.97
2018-12-22T10:20:17.496Z,4.47
2018-12-22T10:22:44.752Z,6.80
2018-12-22T10:25:12.009Z,4.23
2018-12-22T10:27:39.381Z,5.17
2018-12-22T10:30:10.424Z,4.23
2018-12-22T10:32:37.796Z,4.40
2018-12-22T10:35:08.078Z,5.73
2018-12-22T10:37:35.312Z,3.83
2018-12-22T10:40:02.756Z,4.13
2018-12-22T10:42:30.034Z,3.80
2018-12-22T10:44:57.261Z,4.13
2018-12-22T10:47:24.486Z,4.87
2018-12-22T10:49:51.785Z,4.77
2018-12-22T10:52:19.080Z,4.20
2018-12-22T10:54:46.316Z,5.60
2018-12-22T10:57:13.553Z,3.33
2018-12-22T10:59:40.784Z,4.43
2018-12-22T11:02:08.070Z,3.73
2018-12-22T11:04:35.420Z,3.73
2018-12-22T11:07:02.648Z,8.67
2018-12-22T11:09:30.213Z,4.47
2018-12-22T11:11:57.452Z,4.60
2018-12-22T11:14:24.926Z,3.90
2018-12-22T11:16:52.804Z,4.03
2018-12-22T11:19:20.075Z,5.77
2018-12-22T11:21:47.440Z,4.67
2018-12-22T11:24:14.784Z,6.07
2018-12-22T11:26:42.016Z,5.87
2018-12-22T11:29:09.243Z,4.67
2018-12-22T11:31:36.489Z,4.67
2018-12-22T11:34:03.874Z,5.07
2018-12-22T11:36:31.164Z,5.47
2018-12-22T11:38:58.401Z,5.70
2018-12-22T11:41:25.704Z,5.67
2018-12-22T11:43:52.948Z,5.07
2018-12-22T11:46:20.190Z,5.00
2018-12-22T11:48:58.031Z,5.53
2018-12-22T11:51:25.345Z,5.93
2018-12-22T11:53:52.592Z,4.90
2018-12-22T11:56:20.057Z,4.60
2018-12-22T11:58:47.402Z,4.30
2018-12-22T12:01:14.649Z,6.07
2018-12-22T12:03:41.921Z,6.90
2018-12-22T12:06:09.197Z,6.50
2018-12-22T12:08:36.525Z,7.93
2018-12-22T12:11:03.888Z,6.67
2018-12-22T12:13:31.168Z,9.70
2018-12-22T12:16:10.133Z,6.10
2018-12-22T12:18:44.790Z,5.73
2018-12-22T12:21:12.165Z,5.93
2018-12-22T12:23:40.120Z,7.73
2018-12-22T12:26:07.656Z,7.83
2018-12-22T12:28:34.911Z,7.53
2018-12-22T12:31:02.293Z,9.07
2018-12-22T12:33:29.649Z,6.00
2018-12-22T12:35:56.904Z,7.13
2018-12-22T12:38:24.184Z,9.37
2018-12-22T12:40:52.593Z,8.73
2018-12-22T12:43:20.177Z,7.70
2018-12-22T12:45:47.405Z,10.40
2018-12-22T12:48:14.624Z,9.30
2018-12-22T12:50:43.712Z,10.37
2018-12-22T12:53:10.946Z,9.80
2018-12-22T12:55:38.194Z,10.50
2018-12-22T12:58:05.429Z,10.60
2018-12-22T13:00:33.052Z,11.80
2018-12-22T13:03:00.433Z,12.60
2018-12-22T13:05:27.692Z,9.47
2018-12-22T13:07:54.927Z,9.55
2018-12-22T13:10:22.540Z,10.20
2018-12-22T13:13:00.474Z,10.50
2018-12-22T13:15:28.168Z,11.97
2018-12-22T13:17:55.430Z,12.37
2018-12-22T13:20:23.952Z,9.90
2018-12-22T13:22:51.460Z,11.93
2018-12-22T13:25:18.731Z,9.93
2018-12-22T13:27:47.360Z,10.00
2018-12-22T13:30:15.036Z,12.73
2018-12-22T13:32:42.388Z,13.10
2018-12-22T13:35:09.688Z,10.17
2018-12-22T13:37:37.331Z,11.70
2018-12-22T13:40:06.492Z,10.70
2018-12-22T13:42:33.767Z,9.73
2018-12-22T13:45:01.504Z,9.50
2018-12-22T13:47:28.890Z,8.73
2018-12-22T13:56:52.548Z,8.83
2018-12-22T13:59:19.828Z,9.33
2018-12-22T14:01:53.812Z,9.80
2018-12-22T14:04:21.272Z,10.20
2018-12-22T14:06:49.592Z,8.77
2018-12-22T14:09:17.013Z,10.23
2018-12-22T14:11:45.328Z,11.47
2018-12-22T14:14:18.294Z,9.63
2018-12-22T14:16:51.644Z,12.60
2018-12-22T14:19:19.218Z,12.70
2018-12-22T14:21:46.483Z,11.67
2018-12-22T14:24:17.265Z,9.60
2018-12-22T14:26:45.478Z,11.40
2018-12-22T14:29:12.732Z,9.77
2018-12-22T14:31:42.497Z,12.97
2018-12-22T14:34:13.685Z,10.67
2018-12-22T14:36:41.066Z,10.03
2018-12-22T14:39:11.377Z,10.67
2018-12-22T14:41:38.752Z,9.47
2018-12-22T14:44:06.036Z,9.57
2018-12-22T14:46:33.528Z,10.67
2018-12-22T14:49:00.756Z,10.50
2018-12-22T14:51:28.011Z,9.97
2018-12-22T14:53:55.240Z,8.80
2018-12-22T14:56:26.937Z,8.43
2018-12-22T14:58:54.164Z,7.67
2018-12-22T15:01:21.389Z,9.27
2018-12-22T15:03:48.924Z,7.13
2018-12-22T15:06:16.160Z,8.33
2018-12-22T15:08:43.424Z,8.23
2018-12-22T15:11:10.670Z,7.33
2018-12-22T15:13:37.900Z,7.40
2018-12-22T15:16:05.195Z,8.37
2018-12-22T15:18:32.417Z,7.93
2018-12-22T15:20:59.652Z,7.50
2018-12-22T15:23:26.899Z,7.67
2018-12-22T15:25:54.249Z,7.43
2018-12-22T15:28:21.547Z,8.13
2018-12-22T15:30:48.777Z,8.80
2018-12-22T15:33:16.008Z,8.53
2018-12-22T15:35:43.252Z,7.60
2018-12-22T15:38:10.477Z,8.80
2018-12-22T15:40:37.835Z,10.00
2018-12-22T15:43:05.186Z,9.17
2018-12-22T15:45:32.420Z,9.37
2018-12-22T15:47:59.816Z,10.00
2018-12-22T15:50:29.041Z,11.70
2018-12-22T15:52:56.604Z,10.57
2018-12-22T15:55:23.889Z,14.57
2018-12-22T15:57:51.235Z,11.90
2018-12-22T16:00:18.609Z,14.00
2018-12-22T16:02:53.095Z,15.00
2018-12-22T16:06:19.632Z,12.20
2018-12-22T16:08:46.944Z,16.00
2018-12-22T16:11:14.172Z,16.90
2018-12-22T16:13:41.408Z,17.37
2018-12-22T16:16:08.688Z,17.50
2018-12-22T16:18:35.922Z,15.07
2018-12-22T16:21:03.308Z,17.57
2018-12-22T16:23:30.589Z,21.73
2018-12-22T16:25:57.832Z,19.47
2018-12-22T16:28:28.308Z,22.10
2018-12-22T16:30:57.185Z,17.70
2018-12-22T16:33:24.433Z,20.40
2018-12-22T16:35:51.668Z,19.93
2018-12-22T16:38:18.957Z,19.20
2018-12-22T16:40:46.189Z,20.27
2018-12-22T16:43:14.856Z,23.10
2018-12-22T16:45:44.839Z,17.00
2018-12-22T16:48:12.114Z,21.07
2018-12-22T16:50:40.403Z,16.80
2018-12-22T16:53:07.821Z,18.37
2018-12-22T16:55:35.058Z,17.57
2018-12-22T16:58:06.118Z,17.90
2018-12-22T17:00:37.608Z,18.73
2018-12-22T17:03:10.958Z,18.00
2018-12-22T17:05:36.624Z,16.83
2018-12-22T17:08:05.735Z,18.10
2018-12-22T17:10:38.388Z,17.53
2018-12-22T17:13:07.280Z,13.77
2018-12-22T17:15:35.358Z,16.10
2018-12-22T17:18:02.723Z,15.80
2018-12-22T17:20:31.844Z,14.70
2018-12-22T17:23:11.714Z,19.47
2018-12-22T17:25:45.786Z,17.97
2018-12-22T17:28:13.204Z,19.80
2018-12-22T17:30:42.345Z,18.70
2018-12-22T17:33:09.661Z,15.90
2018-12-22T17:35:37.758Z,15.80
2018-12-22T17:38:05.520Z,15.33
2018-12-22T17:40:32.769Z,14.87
2018-12-22T17:42:59.988Z,13.17
2018-12-22T17:45:27.229Z,18.40
2018-12-22T17:47:54.582Z,14.17
2018-12-22T17:50:21.999Z,15.23
2018-12-22T17:52:49.281Z,25.30
2018-12-22T17:55:18.143Z,17.90
2018-12-22T17:57:46.581Z,17.10
2018-12-22T18:00:14.104Z,21.30
2018-12-22T18:02:42.940Z,18.90
2018-12-22T18:05:10.196Z,19.30
2018-12-22T18:07:37.441Z,21.77
2018-12-22T18:10:05.948Z,17.83
2018-12-22T18:12:33.189Z,21.50
2018-12-22T18:15:02.397Z,27.50
2018-12-22T18:17:29.767Z,17.43
2018-12-22T18:19:57.000Z,21.77
2018-12-22T18:22:24.237Z,27.57
2018-12-22T18:24:51.529Z,25.20
2018-12-22T18:27:18.805Z,21.90
2018-12-22T18:29:46.084Z,19.23
2018-12-22T18:32:13.380Z,20.23
2018-12-22T18:34:40.713Z,21.20
2018-12-22T18:37:07.966Z,20.40
2018-12-22T18:39:35.268Z,35.93
2018-12-22T18:42:02.568Z,22.00
2018-12-22T18:44:29.836Z,18.07
2018-12-22T18:46:58.188Z,21.15
2018-12-22T18:49:25.439Z,23.23
2018-12-22T18:51:55.520Z,21.40
2018-12-22T18:54:22.792Z,21.77
2018-12-22T18:56:50.124Z,22.27
2018-12-22T18:59:18.546Z,20.90
2018-12-22T19:01:46.057Z,20.00
2018-12-22T19:04:13.292Z,22.40
2018-12-22T19:06:40.542Z,23.00
2018-12-22T19:09:11.776Z,19.53
2018-12-22T19:11:38.997Z,23.20
2018-12-22T19:14:06.261Z,21.47
2018-12-22T19:16:33.519Z,21.07
2018-12-22T19:19:00.758Z,20.37
2018-12-22T19:21:27.996Z,17.33
2018-12-22T19:23:55.424Z,19.87
2018-12-22T19:26:22.662Z,23.47
2018-12-22T19:28:49.930Z,17.33
2018-12-22T19:31:17.188Z,18.43
2018-12-22T19:33:44.418Z,20.90
2018-12-22T19:36:11.644Z,22.17
2018-12-22T19:38:38.907Z,19.67
2018-12-22T19:41:06.155Z,23.57
2018-12-22T19:43:33.394Z,19.53
2018-12-22T19:46:00.794Z,19.20
2018-12-22T19:48:28.053Z,21.70
2018-12-22T19:50:55.340Z,19.33
2018-12-22T19:53:23.709Z,22.20
2018-12-22T19:55:50.944Z,21.83
2018-12-22T19:58:19.193Z,20.60
2018-12-22T20:00:46.444Z,19.27
2018-12-22T20:03:14.716Z,23.80
2018-12-22T20:05:42.089Z,25.70
2018-12-22T20:08:10.350Z,23.70
2018-12-22T20:10:38.666Z,23.60
2018-12-22T20:13:05.921Z,23.67
2018-12-22T20:15:34.264Z,21.77
2018-12-22T20:18:01.533Z,26.80
2018-12-22T20:20:29.688Z,23.07
2018-12-22T20:22:57.037Z,24.90
2018-12-22T20:25:25.070Z,23.33
2018-12-22T20:27:53.378Z,22.40
2018-12-22T20:30:20.737Z,23.30
2018-12-22T20:32:47.992Z,25.13
2018-12-22T20:35:15.232Z,24.07
2018-12-22T20:37:42.477Z,21.77
2018-12-22T20:40:10.740Z,24.27
2018-12-22T20:42:38.000Z,24.20
2018-12-22T20:45:05.961Z,24.32
2018-12-22T20:47:33.212Z,26.90
2018-12-22T20:50:00.612Z,29.33
2018-12-22T20:52:29.885Z,22.93
2018-12-22T20:54:57.152Z,31.30
2018-12-22T20:57:24.516Z,28.30
2018-12-22T20:59:51.749Z,26.33
2018-12-22T21:02:19.060Z,31.20
2018-12-22T21:04:46.292Z,27.00
2018-12-22T21:07:14.976Z,23.37
2018-12-22T21:09:42.363Z,28.13
2018-12-22T21:12:09.616Z,33.93
2018-12-22T21:14:36.869Z,31.20
2018-12-22T21:17:04.125Z,29.60
2018-12-22T21:19:31.628Z,31.00
2018-12-22T21:21:58.875Z,27.97
2018-12-22T21:24:26.121Z,26.83
2018-12-22T21:26:53.348Z,27.60
2018-12-22T21:29:20.576Z,29.80
2018-12-22T21:31:47.833Z,25.70
2018-12-22T21:34:15.061Z,28.13
2018-12-22T21:36:42.594Z,28.60
2018-12-22T21:39:09.828Z,28.43
2018-12-22T21:41:37.284Z,25.47
2018-12-22T21:44:04.564Z,30.47
2018-12-22T21:46:31.821Z,26.80
2018-12-22T21:48:59.381Z,31.30
2018-12-22T21:51:26.821Z,29.40
2018-12-22T21:53:54.065Z,29.13
2018-12-22T21:56:21.300Z,27.20
2018-12-22T21:58:50.904Z,31.10
2018-12-22T22:01:18.135Z,28.47
2018-12-22T22:03:45.365Z,27.80
2018-12-22T22:06:12.727Z,25.77
2018-12-22T22:08:40.190Z,25.63
2018-12-22T22:11:07.410Z,26.20
2018-12-22T22:13:35.767Z,29.37
2018-12-22T22:16:03.494Z,29.67
2018-12-22T22:18:30.728Z,32.07
2018-12-22T22:20:57.993Z,25.70
2018-12-22T22:23:25.596Z,27.53
2018-12-22T22:25:52.840Z,29.70
2018-12-22T22:28:20.100Z,26.83
2018-12-22T22:30:47.350Z,26.77
2018-12-22T22:33:14.660Z,31.80
2018-12-22T22:35:41.889Z,24.73
2018-12-22T22:38:09.128Z,23.13
2018-12-22T22:40:36.369Z,20.27
2018-12-22T22:43:03.604Z,24.83
2018-12-22T22:45:30.864Z,23.10
2018-12-22T22:47:58.085Z,24.70
2018-12-22T22:50:26.424Z,22.90
2018-12-22T22:52:53.666Z,24.40
2018-12-22T22:55:20.916Z,21.30
2018-12-22T22:57:48.152Z,20.83
2018-12-22T23:00:21.752Z,22.17
2018-12-22T23:02:49.916Z,19.47
2018-12-22T23:05:17.284Z,23.00
2018-12-22T23:07:45.104Z,18.73
2018-12-22T23:10:12.376Z,17.97
2018-12-22T23:12:39.609Z,17.33
2018-12-22T23:15:06.881Z,17.87
2018-12-22T23:17:34.120Z,16.90
2018-12-22T23:20:01.380Z,22.20
2018-12-22T23:22:28.628Z,17.97
2018-12-22T23:24:55.972Z,18.50
2018-12-22T23:27:26.864Z,15.33
2018-12-22T23:29:55.140Z,15.07
2018-12-22T23:32:22.384Z,21.73
2018-12-22T23:34:49.616Z,16.10
2018-12-22T23:37:17.100Z,17.20
2018-12-22T23:39:44.348Z,17.27
2018-12-22T23:42:11.716Z,19.60
2018-12-22T23:44:38.982Z,17.90
2018-12-22T23:47:06.206Z,19.02
2018-12-22T23:49:33.438Z,24.40
2018-12-22T23:52:00.712Z,19.20
2018-12-22T23:54:27.935Z,18.73
2018-12-22T23:56:55.168Z,22.87
2018-12-22T23:59:23.540Z,19.60
